Marianna, AR (72360)

4:02 AM CDT on July 31, 2014 (GMT -0500)
marianna,arrkansas (KARMARIA2) Elev 230 ft | 34.77 °N, 90.77 °W | Change Station

Current weather conditions updated 13 minutes ago

Drizzle
Drizzle
69.1 °F
Feels Like 69.1 °F
N
1.1
Wind Variable Wind from West

Today is forecast to be Much Cooler than yesterday. A few morning showers.

Today
High -- | Low -- °F
--% Chance of Precip.
Yesterday
High -- | Low -- °F
Precip. -- in
6:12 AM 8:06 PM
Waxing Crescent, 17% visible
Pressure 30.08 in
Visibility 5.0 miles
Clouds Scattered Clouds 1800 ft
Mostly Cloudy 2400 ft
Overcast 3600 ft
Dew Point 68 °F
Humidity 97%
Rainfall 0.00 in
Snow Depth Not available.
UV 0 out of 12
Pollen 6.10 out of 12
Air Quality Not available.
Flu Activity Not available.
METAR KUTA 310855Z AUTO 27005KT 5SM DZ SCT018 BKN024 OVC036 21/20 A3008 RMK AO2

More Conditions Fewer Conditions

Pressure 30.08 in
Visibility 5.0 miles
Clouds Scattered Clouds 1800 ft
Mostly Cloudy 2400 ft
Overcast 3600 ft
Dew Point 68 °F
Humidity 97%
Rainfall 0.00 in
Snow Depth Not available.
UV 0 out of 12
Pollen 6.10 out of 12
Air Quality Not available.
Flu Activity Not available.
METAR KUTA 310855Z AUTO 27005KT 5SM DZ SCT018 BKN024 OVC036 21/20 A3008 RMK AO2

More Conditions Fewer Conditions

10-Day Weather Forecast

Almanac

Astronomy

Jul. 31, 2014 Rise Set
Actual Time 6:12 AM CDT 8:06 PM CDT
Civil Twilight 5:44 AM CDT 8:33 PM CDT
Nautical Twilight 5:10 AM CDT 9:07 PM CDT
Astronomical Twilight 4:34 AM CDT 9:43 PM CDT
Moon 10:26 AM CDT 10:32 PM CDT
Length of Visible Light 14h 49m
Length of Day
13h 53m
Tomorrow will be 1m 36s shorter.
Waxing Crescent, 17% of the Moon is Illuminated
Today
Waxing Crescent
Aug 3
First Quarter
Aug 10
Full
Aug 17
Last Quarter
Aug 25
New

Today's Extremes

State Highs State Lows

Community

WunderPhotos

Upload Photos

1,739,284 photos uploaded!

Nearby

Snow Depth

Station Depth Elevation
No new snow has been reported.

Earthquake Activity

City Distance Mag. Time & Date
No recent earthquake activity has been reported nearby.
Minimum magnitude displayed is 2.5.

Coastal Water Temperatures

Place Temperature
No Stations Reporting

Nearby Weather Stations

Station Location Temp. Heat Index Dew Point Humidity Wind Precip. Elev Updated Type
marianna,arrkansas, Marianna, AR 69.1 °F - 68 °F 97% West  at  1.1 mph - / hr 230 ft 3:48 AM CDT Normal
RAWS MARIANNA AR, La Grange, AR 69 °F - 67 °F 94% ENE  at  1 mph 0.00 in / hr 252 ft 2:39 AM CDT MADIS
MesoWest BECKS , Madison, AR 77 °F 75 °F - - North  at  - 0.00 in / hr 219 ft 1:00 AM CDT MADIS
MesoWest TUNICA , Tunica, MS 70 °F - 68 °F 95% NNE  at  1 mph 0.00 in / hr 259 ft 3:00 AM CDT MADIS
MesoWest RNDPND , Widener, AR 73 °F 71 °F - - North  at  - 0.00 in / hr 210 ft 12:35 AM CDT MADIS
MesoWest WHTLEY , Wheatley, AR 68 °F - - - North  at  - 0.00 in / hr 208 ft 1:15 AM CDT MADIS

Show More Stations Show Fewer Stations